createdAt,value
2019-05-30T00:02:30.402Z,1.20
2019-05-30T00:05:31.302Z,2.20
2019-05-30T00:08:32.093Z,1.37
2019-05-30T00:11:32.868Z,2.50
2019-05-30T00:14:33.693Z,1.57
2019-05-30T00:17:34.445Z,2.40
2019-05-30T00:20:35.319Z,3.47
2019-05-30T00:23:36.218Z,2.30
2019-05-30T00:26:36.878Z,1.30
2019-05-30T00:29:37.540Z,1.40
2019-05-30T00:32:38.257Z,4.50
2019-05-30T00:35:38.909Z,5.50
2019-05-30T00:38:39.760Z,4.00
2019-05-30T00:41:40.469Z,1.47
2019-05-30T00:44:41.282Z,1.40
2019-05-30T00:47:41.770Z,2.20
2019-05-30T00:50:42.710Z,1.00
2019-05-30T00:53:43.757Z,1.53
2019-05-30T00:56:44.438Z,5.33
2019-05-30T00:59:45.034Z,3.03
2019-05-30T01:02:45.824Z,3.60
2019-05-30T01:05:46.772Z,1.73
2019-05-30T01:08:47.585Z,1.20
2019-05-30T01:11:48.117Z,0.90
2019-05-30T01:14:48.930Z,2.60
2019-05-30T01:17:49.754Z,1.43
2019-05-30T01:20:50.703Z,1.27
2019-05-30T01:23:51.630Z,0.90
2019-05-30T01:26:52.487Z,1.33
2019-05-30T01:29:53.166Z,2.93
2019-05-30T01:32:53.898Z,1.00
2019-05-30T01:35:54.792Z,1.00
2019-05-30T01:38:55.442Z,1.10
2019-05-30T01:41:57.637Z,1.13
2019-05-30T01:44:58.222Z,2.30
2019-05-30T01:48:00.075Z,2.03
2019-05-30T01:51:00.673Z,0.90
2019-05-30T01:54:02.538Z,1.27
2019-05-30T01:57:04.612Z,2.57
2019-05-30T02:00:07.808Z,0.90
2019-05-30T02:03:09.359Z,1.30
2019-05-30T02:06:10.760Z,2.87
2019-05-30T02:09:11.877Z,4.00
2019-05-30T02:12:12.841Z,2.10
2019-05-30T02:15:13.765Z,2.00
2019-05-30T02:18:14.374Z,1.10
2019-05-30T02:21:15.298Z,1.67
2019-05-30T02:24:15.964Z,3.03
2019-05-30T02:27:16.701Z,1.10
2019-05-30T02:30:17.412Z,1.53
2019-05-30T02:33:18.145Z,2.03
2019-05-30T02:36:18.731Z,1.37
2019-05-30T02:39:19.685Z,1.13
2019-05-30T02:42:20.512Z,2.80
2019-05-30T02:45:21.134Z,1.47
2019-05-30T02:48:21.841Z,1.50
2019-05-30T02:51:22.577Z,1.30
2019-05-30T02:54:23.547Z,1.87
2019-05-30T02:57:24.453Z,2.20
2019-05-30T03:00:25.251Z,4.00
2019-05-30T03:03:25.895Z,1.30
2019-05-30T03:06:26.698Z,1.43
2019-05-30T03:09:27.323Z,1.50
2019-05-30T03:12:28.188Z,3.00
2019-05-30T03:15:28.978Z,2.83
2019-05-30T03:18:29.917Z,1.67
2019-05-30T03:21:30.766Z,2.17
2019-05-30T03:24:31.718Z,1.67
2019-05-30T03:27:32.407Z,1.33
2019-05-30T03:30:33.347Z,1.30
2019-05-30T03:33:41.023Z,2.23
2019-05-30T03:36:37.065Z,2.13
2019-05-30T03:39:37.988Z,1.50
2019-05-30T03:42:38.595Z,7.23
2019-05-30T03:45:39.182Z,3.13
2019-05-30T03:48:40.243Z,2.23
2019-05-30T03:51:41.169Z,2.10
2019-05-30T03:54:41.956Z,2.50
2019-05-30T03:57:42.642Z,11.70
2019-05-30T04:00:43.551Z,2.80
2019-05-30T04:03:44.289Z,2.13
2019-05-30T04:06:44.814Z,1.80
2019-05-30T04:09:45.571Z,3.37
2019-05-30T04:12:46.718Z,1.80
2019-05-30T04:15:47.233Z,1.80
2019-05-30T04:18:48.162Z,2.43
2019-05-30T04:21:48.818Z,2.63
2019-05-30T04:24:49.264Z,1.90
2019-05-30T04:27:50.197Z,2.37
2019-05-30T04:30:50.906Z,1.77
2019-05-30T04:33:51.726Z,2.10
2019-05-30T04:36:53.621Z,2.27
2019-05-30T04:39:54.257Z,6.00
2019-05-30T04:42:54.923Z,2.20
2019-05-30T04:45:55.487Z,2.87
2019-05-30T04:48:56.349Z,3.13
2019-05-30T04:51:57.253Z,2.40
2019-05-30T04:54:58.216Z,2.20
2019-05-30T04:57:58.998Z,2.10
2019-05-30T05:00:59.774Z,3.37
2019-05-30T05:04:00.411Z,3.93
2019-05-30T05:07:01.108Z,2.43
2019-05-30T05:10:01.987Z,4.37
2019-05-30T05:13:02.707Z,2.40
2019-05-30T05:16:21.482Z,4.40
2019-05-30T05:19:06.131Z,3.20
2019-05-30T05:22:06.795Z,3.20
2019-05-30T05:25:07.748Z,7.27
2019-05-30T05:28:08.181Z,8.10
2019-05-30T05:31:08.882Z,2.73
2019-05-30T05:33:57.676Z,4.17
2019-05-30T05:37:05.693Z,4.57
2019-05-30T05:40:13.994Z,2.67
2019-05-30T05:43:22.462Z,4.90
2019-05-30T05:46:31.725Z,2.17
2019-05-30T05:49:39.753Z,2.13
2019-05-30T05:52:47.769Z,2.43
2019-05-30T05:55:49.048Z,2.53
2019-05-30T05:58:49.814Z,3.97
2019-05-30T06:01:38.754Z,3.67
2019-05-30T06:04:46.781Z,2.10
2019-05-30T06:07:54.864Z,2.67
2019-05-30T06:11:02.890Z,4.33
2019-05-30T06:14:10.917Z,4.33
2019-05-30T06:17:19.016Z,2.90
2019-05-30T06:20:28.660Z,2.40
2019-05-30T06:23:36.671Z,3.10
2019-05-30T06:26:44.700Z,2.83
2019-05-30T06:29:52.734Z,3.83
2019-05-30T06:33:00.746Z,2.73
2019-05-30T06:36:08.778Z,2.87
2019-05-30T06:39:16.805Z,3.17
2019-05-30T06:42:25.784Z,3.87
2019-05-30T06:45:34.608Z,2.83
2019-05-30T06:48:42.618Z,2.47
2019-05-30T06:51:50.654Z,3.50
2019-05-30T06:54:58.681Z,2.93
2019-05-30T06:57:59.645Z,2.60
2019-05-30T07:01:00.258Z,2.10
2019-05-30T07:04:01.443Z,2.47
2019-05-30T07:07:05.908Z,4.10
2019-05-30T07:10:05.845Z,2.63
2019-05-30T07:13:06.940Z,2.40
2019-05-30T07:16:07.625Z,2.50
2019-05-30T07:19:08.370Z,2.83
2019-05-30T07:22:09.146Z,2.40
2019-05-30T07:25:10.155Z,2.47
2019-05-30T07:28:10.759Z,2.63
2019-05-30T07:31:11.490Z,5.17
2019-05-30T07:34:12.117Z,3.67
2019-05-30T07:37:13.158Z,2.53
2019-05-30T07:40:19.035Z,3.97
2019-05-30T07:43:16.766Z,1.67
2019-05-30T07:46:17.578Z,3.93
2019-05-30T07:49:18.301Z,2.40
2019-05-30T07:52:19.277Z,6.03
2019-05-30T07:55:19.821Z,3.87
2019-05-30T07:58:20.613Z,2.10
2019-05-30T08:01:21.456Z,2.80
2019-05-30T08:04:21.916Z,3.93
2019-05-30T08:07:22.590Z,2.07
2019-05-30T08:10:23.657Z,2.37
2019-05-30T08:13:24.629Z,2.93
2019-05-30T08:16:25.230Z,6.77
2019-05-30T08:19:27.636Z,2.10
2019-05-30T08:22:28.206Z,2.47
2019-05-30T08:25:30.009Z,3.60
2019-05-30T08:28:30.588Z,2.93
2019-05-30T08:31:32.438Z,6.90
2019-05-30T08:34:33.293Z,3.73
2019-05-30T08:37:35.153Z,4.90
2019-05-30T08:40:37.485Z,3.83
2019-05-30T08:43:39.701Z,4.03
2019-05-30T08:46:40.910Z,2.47
2019-05-30T08:49:41.777Z,2.13
2019-05-30T08:52:42.897Z,2.20
2019-05-30T08:55:43.785Z,4.20
2019-05-30T08:58:44.447Z,3.80
2019-05-30T09:01:46.430Z,1.90
2019-05-30T09:04:38.007Z,3.23
2019-05-30T09:07:46.382Z,2.07
2019-05-30T09:10:55.869Z,2.90
2019-05-30T09:14:04.208Z,3.47
2019-05-30T09:17:12.229Z,2.13
2019-05-30T09:20:20.520Z,3.03
2019-05-30T09:23:28.556Z,2.60
2019-05-30T09:26:38.484Z,3.97
2019-05-30T09:29:46.310Z,2.30
2019-05-30T09:32:54.377Z,5.63
2019-05-30T09:36:12.854Z,2.87
2019-05-30T09:39:12.265Z,3.90
2019-05-30T09:42:20.300Z,2.47
2019-05-30T09:45:28.496Z,2.13
2019-05-30T09:48:36.530Z,2.30
2019-05-30T09:51:45.216Z,2.27
2019-05-30T09:54:54.268Z,4.30
2019-05-30T09:57:55.073Z,2.23
2019-05-30T10:00:56.197Z,4.07
2019-05-30T10:03:57.116Z,3.27
2019-05-30T10:06:58.435Z,2.90
2019-05-30T10:09:59.652Z,2.60
2019-05-30T10:13:00.272Z,5.23
2019-05-30T10:16:01.081Z,3.07
2019-05-30T10:19:01.778Z,2.63
2019-05-30T10:22:02.281Z,1.83
2019-05-30T10:25:03.120Z,3.33
2019-05-30T10:28:03.967Z,2.13
2019-05-30T10:31:04.934Z,2.93
2019-05-30T10:34:05.715Z,2.30
2019-05-30T10:37:06.401Z,2.53
2019-05-30T10:40:07.586Z,5.47
2019-05-30T10:43:08.705Z,3.40
2019-05-30T10:46:09.229Z,4.83
2019-05-30T10:49:10.033Z,5.07
2019-05-30T10:52:10.995Z,3.20
2019-05-30T10:55:11.738Z,4.67
2019-05-30T10:58:00.862Z,4.60
2019-05-30T11:01:08.997Z,5.40
2019-05-30T11:04:17.021Z,2.60
2019-05-30T11:07:54.614Z,4.63
2019-05-30T11:10:54.852Z,2.60
2019-05-30T11:14:04.211Z,3.20
2019-05-30T11:17:12.222Z,3.07
2019-05-30T11:20:20.562Z,3.30
2019-05-30T11:23:28.646Z,4.13
2019-05-30T11:26:36.657Z,2.80
2019-05-30T11:29:44.689Z,3.13
2019-05-30T11:32:53.112Z,2.30
2019-05-30T11:36:02.514Z,3.60
2019-05-30T11:39:10.628Z,3.03
2019-05-30T11:42:18.693Z,2.40
2019-05-30T11:45:26.793Z,3.00
2019-05-30T11:48:34.822Z,4.30
2019-05-30T11:51:42.833Z,2.83
2019-05-30T11:54:52.011Z,2.20
2019-05-30T11:57:54.626Z,4.43
2019-05-30T12:00:56.350Z,3.13
2019-05-30T12:03:58.643Z,2.67
2019-05-30T12:07:00.921Z,2.67
2019-05-30T12:10:01.830Z,4.63
2019-05-30T12:13:02.806Z,2.83
2019-05-30T12:16:03.805Z,2.87
2019-05-30T12:19:04.671Z,3.43
2019-05-30T12:22:05.321Z,3.70
2019-05-30T12:25:06.031Z,3.53
2019-05-30T12:28:06.641Z,2.90
2019-05-30T12:31:07.495Z,2.83
2019-05-30T12:34:08.237Z,2.90
2019-05-30T12:37:09.081Z,3.83
2019-05-30T12:40:09.980Z,3.10
2019-05-30T12:43:10.930Z,3.33
2019-05-30T12:46:11.456Z,7.97
2019-05-30T12:49:12.047Z,4.73
2019-05-30T12:52:12.969Z,6.37
2019-05-30T12:55:14.010Z,4.63
2019-05-30T12:58:14.617Z,4.37
2019-05-30T13:01:15.225Z,7.27
2019-05-30T13:04:15.905Z,5.87
2019-05-30T13:07:04.772Z,10.10
2019-05-30T13:10:13.024Z,5.80
2019-05-30T13:13:22.683Z,11.70
2019-05-30T13:16:30.705Z,6.07
2019-05-30T13:19:38.748Z,6.87
2019-05-30T13:22:46.908Z,7.40
2019-05-30T13:25:55.509Z,8.93
2019-05-30T13:29:04.853Z,8.97
2019-05-30T13:32:12.878Z,7.80
2019-05-30T13:35:20.905Z,8.10
2019-05-30T13:38:28.919Z,6.90
2019-05-30T13:41:36.968Z,7.43
2019-05-30T13:44:45.003Z,9.23
2019-05-30T13:47:53.094Z,12.00
2019-05-30T13:51:01.121Z,10.90
2019-05-30T13:54:09.391Z,9.97
2019-05-30T13:57:11.202Z,10.40
2019-05-30T14:00:12.422Z,12.63
2019-05-30T14:03:12.964Z,10.83
2019-05-30T14:06:13.645Z,11.43
2019-05-30T14:09:14.365Z,18.37
2019-05-30T14:12:15.373Z,10.70
2019-05-30T14:15:17.274Z,14.77
2019-05-30T14:18:18.277Z,13.87
2019-05-30T14:21:18.853Z,10.80
2019-05-30T14:24:19.441Z,10.20
2019-05-30T14:27:20.337Z,12.10
2019-05-30T14:30:21.167Z,10.30
2019-05-30T14:33:21.950Z,12.73
2019-05-30T14:36:22.842Z,10.00
2019-05-30T14:39:23.281Z,10.90
2019-05-30T14:42:24.157Z,12.10
2019-05-30T14:45:27.778Z,12.83
2019-05-30T14:48:27.953Z,14.13
2019-05-30T14:51:29.082Z,12.50
2019-05-30T14:54:29.894Z,12.40
2019-05-30T14:57:30.677Z,14.40
2019-05-30T15:00:31.437Z,16.00
2019-05-30T15:03:32.221Z,18.17
2019-05-30T15:06:32.959Z,20.10
2019-05-30T15:09:33.852Z,18.13
2019-05-30T15:12:34.657Z,16.63
2019-05-30T15:15:35.701Z,15.57
2019-05-30T15:18:36.610Z,17.70
2019-05-30T15:21:37.732Z,15.50
2019-05-30T15:24:38.323Z,19.60
2019-05-30T15:27:39.243Z,16.70
2019-05-30T15:30:41.570Z,19.43
2019-05-30T15:33:42.177Z,19.13
2019-05-30T15:36:43.168Z,17.60
2019-05-30T15:39:44.049Z,17.83
2019-05-30T15:42:44.540Z,19.80
2019-05-30T15:45:45.249Z,17.10
2019-05-30T15:48:46.032Z,17.53
2019-05-30T15:51:46.834Z,18.60
2019-05-30T15:54:47.566Z,18.10
2019-05-30T15:57:48.608Z,17.43
2019-05-30T16:00:49.210Z,17.83
2019-05-30T16:03:49.721Z,20.57
2019-05-30T16:06:50.603Z,16.90
2019-05-30T16:09:49.934Z,16.87
2019-05-30T16:12:58.229Z,14.80
2019-05-30T16:16:07.712Z,14.50
2019-05-30T16:19:23.445Z,13.03
2019-05-30T16:22:28.015Z,16.73
2019-05-30T16:25:36.116Z,16.27
2019-05-30T16:28:44.130Z,13.93
2019-05-30T16:31:52.198Z,16.00
2019-05-30T16:35:00.226Z,15.33
2019-05-30T16:38:08.242Z,16.53
2019-05-30T16:41:16.314Z,17.17
2019-05-30T16:44:24.396Z,15.17
2019-05-30T16:47:32.409Z,19.80
2019-05-30T16:50:40.441Z,15.83
2019-05-30T16:53:48.459Z,15.57
2019-05-30T16:56:47.601Z,13.33
2019-05-30T16:59:55.633Z,13.30
2019-05-30T17:03:03.653Z,15.10
2019-05-30T17:06:11.685Z,14.30
2019-05-30T17:09:19.697Z,46.77
2019-05-30T17:12:27.732Z,42.17
2019-05-30T17:15:35.793Z,40.43
2019-05-30T17:18:43.809Z,88.20
2019-05-30T17:21:51.861Z,66.30
2019-05-30T17:24:59.881Z,24.17
2019-05-30T17:28:07.918Z,19.17
2019-05-30T17:31:15.949Z,19.23
2019-05-30T17:34:24.086Z,17.47
2019-05-30T17:37:32.149Z,17.73
2019-05-30T17:40:45.010Z,18.27
2019-05-30T17:43:49.901Z,17.77
2019-05-30T17:46:57.938Z,17.73
2019-05-30T17:50:06.269Z,16.93
2019-05-30T17:52:55.399Z,17.87
2019-05-30T17:55:59.261Z,16.30
2019-05-30T17:58:58.780Z,16.80
2019-05-30T18:02:00.960Z,17.07
2019-05-30T18:05:02.165Z,14.87
2019-05-30T18:08:02.581Z,16.50
2019-05-30T18:11:03.157Z,16.10
2019-05-30T18:14:03.932Z,17.00
2019-05-30T18:17:04.917Z,15.87
2019-05-30T18:20:05.604Z,16.90
2019-05-30T18:23:06.574Z,16.37
2019-05-30T18:26:07.438Z,14.23
2019-05-30T18:29:07.928Z,15.53
2019-05-30T18:32:08.551Z,15.63
2019-05-30T18:35:09.577Z,17.20
2019-05-30T18:38:10.202Z,16.80
2019-05-30T18:41:14.215Z,19.30
2019-05-30T18:44:13.782Z,16.73
2019-05-30T18:47:14.702Z,17.37
2019-05-30T18:50:15.529Z,17.93
2019-05-30T18:53:16.093Z,18.00
2019-05-30T18:56:17.053Z,17.23
2019-05-30T18:59:17.886Z,15.97
2019-05-30T19:02:18.757Z,16.80
2019-05-30T19:05:19.496Z,15.30
2019-05-30T19:08:20.143Z,15.30
2019-05-30T19:11:28.018Z,18.07
2019-05-30T19:14:23.981Z,15.43
2019-05-30T19:17:25.364Z,14.97
2019-05-30T19:20:25.998Z,15.93
2019-05-30T19:23:27.916Z,18.73
2019-05-30T19:26:28.613Z,18.13
2019-05-30T19:29:30.909Z,18.37
2019-05-30T19:32:32.700Z,16.87
2019-05-30T19:35:33.725Z,15.30
2019-05-30T19:38:35.467Z,17.10
2019-05-30T19:41:51.403Z,14.70
2019-05-30T19:44:41.612Z,14.53
2019-05-30T19:47:40.369Z,15.43
2019-05-30T19:50:48.410Z,15.83
2019-05-30T19:53:56.427Z,17.00
2019-05-30T19:56:57.762Z,15.47
2019-05-30T19:59:58.589Z,16.57
2019-05-30T20:02:59.360Z,14.40
2019-05-30T20:05:59.966Z,13.90
2019-05-30T20:09:00.882Z,13.47
2019-05-30T20:12:03.985Z,17.77
2019-05-30T20:15:04.101Z,12.93
2019-05-30T20:18:04.833Z,13.63
2019-05-30T20:21:05.561Z,14.63
2019-05-30T20:24:06.354Z,12.47
2019-05-30T20:27:06.917Z,15.83
2019-05-30T20:30:07.510Z,14.63
2019-05-30T20:33:08.227Z,11.13
2019-05-30T20:36:08.714Z,14.60
2019-05-30T20:39:09.281Z,12.27
2019-05-30T20:42:18.682Z,12.23
2019-05-30T20:45:12.596Z,11.00
2019-05-30T20:48:13.202Z,10.40
2019-05-30T20:51:21.073Z,10.43
2019-05-30T20:54:16.805Z,8.47
2019-05-30T20:57:17.684Z,10.97
2019-05-30T21:00:18.777Z,8.93
2019-05-30T21:03:19.486Z,7.83
2019-05-30T21:06:19.955Z,9.47
2019-05-30T21:09:28.832Z,10.57
2019-05-30T21:12:36.946Z,11.57
2019-05-30T21:15:26.267Z,9.57
2019-05-30T21:18:27.192Z,8.80
2019-05-30T21:21:28.014Z,9.60
2019-05-30T21:24:28.834Z,10.23
2019-05-30T21:27:29.610Z,8.97
2019-05-30T21:30:30.509Z,10.20
2019-05-30T21:33:31.367Z,10.97
2019-05-30T21:36:32.291Z,8.43
2019-05-30T21:39:33.136Z,8.70
2019-05-30T21:42:33.789Z,9.60
2019-05-30T21:45:34.622Z,9.40
2019-05-30T21:48:35.381Z,13.37
2019-05-30T21:51:36.405Z,12.53
2019-05-30T21:54:37.367Z,10.40
2019-05-30T21:57:38.003Z,12.23
2019-05-30T22:00:38.785Z,9.33
2019-05-30T22:03:40.783Z,9.10
2019-05-30T22:06:42.766Z,11.43
2019-05-30T22:09:43.134Z,9.93
2019-05-30T22:12:51.826Z,8.73
2019-05-30T22:16:00.999Z,11.27
2019-05-30T22:19:09.189Z,10.00
2019-05-30T22:26:09.554Z,11.83
2019-05-30T22:29:17.585Z,8.27
2019-05-30T22:32:25.594Z,7.30
2019-05-30T22:35:33.622Z,7.40
2019-05-30T22:38:42.714Z,7.53
2019-05-30T22:41:52.087Z,10.07
2019-05-30T22:45:01.156Z,11.27
2019-05-30T22:48:09.270Z,7.57
2019-05-30T22:51:17.281Z,7.97
2019-05-30T22:54:25.323Z,7.90
2019-05-30T22:57:25.976Z,7.40
2019-05-30T23:00:26.749Z,8.73
2019-05-30T23:03:27.482Z,7.40
2019-05-30T23:06:28.308Z,8.97
2019-05-30T23:09:29.036Z,7.20
2019-05-30T23:12:29.828Z,8.27
2019-05-30T23:15:30.384Z,10.37
2019-05-30T23:18:31.089Z,8.40
2019-05-30T23:21:31.794Z,8.33
2019-05-30T23:24:32.397Z,7.00
2019-05-30T23:27:32.880Z,8.80
2019-05-30T23:30:33.789Z,7.60
2019-05-30T23:33:34.308Z,7.43
2019-05-30T23:36:35.185Z,7.30
2019-05-30T23:39:36.012Z,9.60
2019-05-30T23:42:36.770Z,7.00
2019-05-30T23:45:25.573Z,8.17
2019-05-30T23:48:33.596Z,8.20
2019-05-30T23:51:41.692Z,6.70
2019-05-30T23:54:50.024Z,7.30
2019-05-30T23:57:52.439Z,6.90
